Time;durP1;ratioP1;P1;durP2;ratioP2;P2;SDS_P1;SDS_P2;PMS_P1;PMS_P2;Temp;Humidity;BMP_temperature;BMP_pressure;BME280_temperature;BME280_humidity;BME280_pressure;Samples;Min_cycle;Max_cycle;Signal;HPM_P1;HPM_P2
2023/07/26 00:02:04;;;;;;;1999.90;999.90;;;15.50;99.90;;;;;;5051441;28;20761;-72
2023/07/26 00:04:30;;;;;;;1999.90;999.90;;;15.30;99.90;;;;;;5051707;28;20191;-71
2023/07/26 00:06:55;;;;;;;1999.90;999.90;;;15.20;99.90;;;;;;5051744;28;20225;-72
2023/07/26 00:09:21;;;;;;;1999.90;999.90;;;15.30;99.90;;;;;;5051635;28;20193;-72
2023/07/26 00:11:46;;;;;;;1999.90;999.90;;;15.40;99.90;;;;;;5051477;28;20182;-72
2023/07/26 00:14:13;;;;;;;1999.90;999.90;;;15.40;99.90;;;;;;5051516;28;20516;-71
2023/07/26 00:16:39;;;;;;;1999.90;999.90;;;15.40;99.90;;;;;;5051557;28;20177;-72
2023/07/26 00:19:05;;;;;;;1999.90;999.90;;;15.40;99.90;;;;;;5051542;28;20416;-72
2023/07/26 00:21:32;;;;;;;1999.90;999.90;;;15.40;99.90;;;;;;5054331;28;20464;-72
2023/07/26 00:23:58;;;;;;;1999.90;999.90;;;15.40;99.90;;;;;;5055597;28;20172;-72
2023/07/26 00:26:25;;;;;;;1999.90;999.90;;;15.40;99.90;;;;;;5055480;28;21161;-72
2023/07/26 00:28:51;;;;;;;1999.90;999.90;;;15.40;99.90;;;;;;5055391;28;20403;-72
2023/07/26 00:31:16;;;;;;;1999.90;999.90;;;15.40;99.90;;;;;;5055034;28;20533;-71
2023/07/26 00:33:42;;;;;;;1999.90;999.90;;;15.40;99.90;;;;;;5055347;28;20166;-72
2023/07/26 00:36:08;;;;;;;1999.90;999.90;;;15.30;99.90;;;;;;5055306;28;20182;-72
2023/07/26 00:38:34;;;;;;;1999.90;999.90;;;15.40;99.90;;;;;;5055294;28;20162;-72
2023/07/26 00:41:00;;;;;;;1999.90;999.90;;;15.30;99.90;;;;;;5054938;28;20413;-72
2023/07/26 00:43:25;;;;;;;1999.90;999.90;;;15.30;99.90;;;;;;5055162;28;20607;-72
2023/07/26 00:45:52;;;;;;;1999.90;999.90;;;15.30;99.90;;;;;;5054999;28;20191;-71
2023/07/26 00:48:18;;;;;;;1999.90;999.90;;;15.30;99.90;;;;;;5055105;28;20265;-72
2023/07/26 00:50:45;;;;;;;1999.90;999.90;;;15.30;99.90;;;;;;5054880;28;20535;-72
2023/07/26 00:53:13;;;;;;;1999.90;999.90;;;15.30;99.90;;;;;;5054787;28;20175;-71
2023/07/26 00:55:39;;;;;;;1999.90;999.90;;;15.40;99.90;;;;;;5054877;28;20427;-72
2023/07/26 00:58:05;;;;;;;1999.90;999.90;;;15.30;99.90;;;;;;5054932;28;20410;-72
2023/07/26 01:00:30;;;;;;;1999.90;999.90;;;15.30;99.90;;;;;;5054853;28;20165;-72
2023/07/26 01:02:56;;;;;;;1999.90;999.90;;;15.30;99.90;;;;;;5054537;28;20257;-72
2023/07/26 01:05:27;;;;;;;1999.90;999.90;;;15.30;99.90;;;;;;5054890;28;20284;-72
2023/07/26 01:08:06;;;;;;;1999.90;999.90;;;15.30;99.90;;;;;;5054801;28;20403;-72
2023/07/26 01:10:45;;;;;;;1999.90;999.90;;;15.30;99.90;;;;;;5054684;28;20464;-70
2023/07/26 01:13:19;;;;;;;1999.90;999.90;;;15.20;99.90;;;;;;5054432;28;20404;-72
2023/07/26 01:15:47;;;;;;;1999.90;999.90;;;15.20;99.90;;;;;;5054539;28;20426;-72
2023/07/26 01:18:15;;;;;;;1999.90;999.90;;;15.20;99.90;;;;;;5054555;28;20429;-72
2023/07/26 01:20:41;;;;;;;1999.90;999.90;;;15.10;99.90;;;;;;5054649;28;20911;-72
2023/07/26 01:23:07;;;;;;;1999.90;999.90;;;15.10;99.90;;;;;;5054172;28;20413;-72
2023/07/26 01:25:34;;;;;;;1999.90;999.90;;;15.10;99.90;;;;;;5054145;28;20963;-72
2023/07/26 01:27:59;;;;;;;1999.90;999.90;;;15.10;99.90;;;;;;5054346;28;20408;-72
2023/07/26 01:30:30;;;;;;;1999.90;999.90;;;15.00;99.90;;;;;;5054244;28;20453;-72
2023/07/26 01:33:04;;;;;;;1999.90;999.90;;;15.10;99.90;;;;;;5052878;28;20168;-72
2023/07/26 01:35:30;;;;;;;1999.90;999.90;;;15.00;99.90;;;;;;5054206;28;20428;-72
2023/07/26 01:37:57;;;;;;;1999.90;999.90;;;15.00;99.90;;;;;;5054157;28;20403;-72
2023/07/26 01:40:23;;;;;;;1999.90;999.90;;;15.00;99.90;;;;;;5054115;28;20760;-72
2023/07/26 01:42:49;;;;;;;1999.90;999.90;;;15.00;99.90;;;;;;5053865;28;20467;-72
2023/07/26 01:45:16;;;;;;;1999.90;999.90;;;15.10;99.90;;;;;;5054041;28;20929;-72
2023/07/26 01:47:41;;;;;;;1999.90;999.90;;;15.00;99.90;;;;;;5054006;28;20439;-72
2023/07/26 01:50:08;;;;;;;1999.90;999.90;;;15.00;99.90;;;;;;5053931;28;20892;-72
2023/07/26 01:52:33;;;;;;;1999.90;999.90;;;15.00;99.90;;;;;;5053573;28;20430;-72
2023/07/26 01:55:02;;;;;;;1999.90;999.90;;;15.00;99.90;;;;;;5053967;28;20850;-72
2023/07/26 01:57:28;;;;;;;1999.90;999.90;;;15.00;99.90;;;;;;5053768;28;20174;-72
2023/07/26 01:59:54;;;;;;;1999.90;999.90;;;15.00;99.90;;;;;;5053781;28;20406;-72
2023/07/26 02:02:20;;;;;;;1999.90;999.90;;;14.90;99.90;;;;;;5053654;28;20281;-72
2023/07/26 02:04:46;;;;;;;1999.90;999.90;;;14.90;99.90;;;;;;5053618;28;20944;-72
2023/07/26 02:07:12;;;;;;;1999.90;999.90;;;14.90;99.90;;;;;;5053634;28;20493;-72
2023/07/26 02:09:38;;;;;;;1999.90;999.90;;;14.90;99.90;;;;;;5053527;28;20540;-72
2023/07/26 02:12:04;;;;;;;1999.90;999.90;;;14.90;99.90;;;;;;5053367;28;20173;-72
2023/07/26 02:14:30;;;;;;;1999.90;999.90;;;14.90;99.90;;;;;;5053471;28;20432;-72
2023/07/26 02:16:56;;;;;;;1999.90;999.90;;;14.90;99.90;;;;;;5053405;28;20895;-72
2023/07/26 02:19:21;;;;;;;1999.90;999.90;;;14.90;99.90;;;;;;5053408;28;20174;-71
2023/07/26 02:21:47;;;;;;;1999.90;999.90;;;14.80;99.90;;;;;;5053063;28;20683;-72
2023/07/26 02:24:13;;;;;;;1999.90;999.90;;;14.70;99.90;;;;;;5053257;28;20175;-73
2023/07/26 02:26:38;;;;;;;1999.90;999.90;;;14.80;99.90;;;;;;5053140;28;20192;-72
2023/07/26 02:29:04;;;;;;;1999.90;999.90;;;14.70;99.90;;;;;;5053135;28;20714;-71
2023/07/26 02:31:30;;;;;;;1999.90;999.90;;;14.70;99.90;;;;;;5052979;28;20167;-72
2023/07/26 02:33:55;;;;;;;1999.90;999.90;;;14.70;99.90;;;;;;5053142;28;20164;-72
2023/07/26 02:36:21;;;;;;;1999.90;999.90;;;14.70;99.90;;;;;;5052916;28;21003;-72
2023/07/26 02:38:47;;;;;;;1999.90;999.90;;;14.70;99.90;;;;;;5053003;28;20583;-73
2023/07/26 02:41:12;;;;;;;1999.90;999.90;;;14.70;99.90;;;;;;5052951;28;20176;-72
2023/07/26 02:43:38;;;;;;;1999.90;999.90;;;14.70;99.90;;;;;;5052767;28;20168;-72
2023/07/26 02:46:03;;;;;;;1999.90;999.90;;;14.60;99.90;;;;;;5052797;28;20191;-72
2023/07/26 02:48:29;;;;;;;1999.90;999.90;;;14.60;99.90;;;;;;5052886;28;20522;-72
2023/07/26 02:50:54;;;;;;;1999.90;999.90;;;14.60;99.90;;;;;;5052448;28;20205;-72
2023/07/26 02:53:21;;;;;;;1999.90;999.90;;;14.70;99.90;;;;;;5052731;28;20167;-71
2023/07/26 02:55:46;;;;;;;1999.90;999.90;;;14.70;99.90;;;;;;5052599;28;20225;-71
2023/07/26 02:58:12;;;;;;;1999.90;999.90;;;14.70;99.90;;;;;;5052676;28;20918;-72
2023/07/26 03:00:37;;;;;;;1999.90;999.90;;;14.60;99.90;;;;;;5052593;28;20250;-72
2023/07/26 03:03:03;;;;;;;1999.90;999.90;;;14.60;99.90;;;;;;5052284;28;20626;-72
2023/07/26 03:05:28;;;;;;;1999.90;999.90;;;14.70;99.90;;;;;;5052476;28;20183;-71
2023/07/26 03:07:54;;;;;;;1999.90;999.90;;;14.70;99.90;;;;;;5053103;28;20200;-71
2023/07/26 03:10:20;;;;;;;1999.90;999.90;;;14.70;99.90;;;;;;5052366;28;20192;-71
2023/07/26 03:12:45;;;;;;;1999.90;999.90;;;14.70;99.90;;;;;;5052144;28;20622;-72
2023/07/26 03:15:11;;;;;;;1999.90;999.90;;;14.80;99.90;;;;;;5052284;28;20196;-72
2023/07/26 03:17:36;;;;;;;1999.90;999.90;;;14.70;99.90;;;;;;5052275;28;20177;-72
2023/07/26 03:20:03;;;;;;;1999.90;999.90;;;14.70;99.90;;;;;;5052262;28;20575;-71
2023/07/26 03:22:28;;;;;;;1999.90;999.90;;;14.70;99.90;;;;;;5052243;28;20607;-71
2023/07/26 03:24:54;;;;;;;1999.90;999.90;;;14.70;99.90;;;;;;5052046;28;20535;-71
2023/07/26 03:27:20;;;;;;;1999.90;999.90;;;14.70;99.90;;;;;;5052198;28;20209;-71
2023/07/26 03:29:45;;;;;;;1999.90;999.90;;;14.70;99.90;;;;;;5052091;28;20190;-71
2023/07/26 03:32:12;;;;;;;1999.90;999.90;;;14.80;99.90;;;;;;5051896;28;20171;-71
2023/07/26 03:34:37;;;;;;;1999.90;999.90;;;14.80;99.90;;;;;;5051976;28;20200;-72
2023/07/26 03:37:03;;;;;;;1999.90;999.90;;;14.70;99.90;;;;;;5052048;28;20398;-71
2023/07/26 03:39:29;;;;;;;1999.90;999.90;;;14.80;99.90;;;;;;5052008;28;20218;-71
2023/07/26 03:41:54;;;;;;;1999.90;999.90;;;14.80;99.90;;;;;;5051729;28;20179;-71
2023/07/26 03:44:20;;;;;;;1999.90;999.90;;;14.80;99.90;;;;;;5051933;28;20562;-72
2023/07/26 03:46:46;;;;;;;1999.90;999.90;;;14.70;99.90;;;;;;5051955;28;20171;-72
2023/07/26 03:49:11;;;;;;;1999.90;999.90;;;14.60;99.90;;;;;;5051754;28;20688;-71
2023/07/26 03:51:37;;;;;;;1999.90;999.90;;;14.60;99.90;;;;;;5051590;28;20159;-71
2023/07/26 03:54:02;;;;;;;1999.90;999.90;;;14.60;99.90;;;;;;5051658;28;20251;-72
2023/07/26 03:56:28;;;;;;;1999.90;999.90;;;14.70;99.90;;;;;;5051244;28;20188;-72
2023/07/26 03:58:54;;;;;;;1999.90;999.90;;;14.80;99.90;;;;;;5051922;28;20582;-71
2023/07/26 04:01:19;;;;;;;1999.90;999.90;;;14.70;99.90;;;;;;5051529;28;20242;-71
2023/07/26 04:03:45;;;;;;;1999.90;999.90;;;14.70;99.90;;;;;;5051757;28;20180;-71
2023/07/26 04:06:12;;;;;;;1999.90;999.90;;;14.70;99.90;;;;;;5051631;28;20237;-71
2023/07/26 04:08:39;;;;;;;1999.90;999.90;;;14.70;99.90;;;;;;5051666;28;20191;-71
2023/07/26 04:11:04;;;;;;;1999.90;999.90;;;14.70;99.90;;;;;;5051299;28;20551;-72
2023/07/26 04:13:30;;;;;;;1999.90;999.90;;;14.60;99.90;;;;;;5051796;28;20442;-71
2023/07/26 04:15:55;;;;;;;1999.90;999.90;;;14.60;99.90;;;;;;5051600;28;20191;-71
2023/07/26 04:18:21;;;;;;;1999.90;999.90;;;14.60;99.90;;;;;;5051558;28;20163;-72
2023/07/26 04:20:46;;;;;;;1999.90;999.90;;;14.60;99.90;;;;;;5051550;28;20177;-72
2023/07/26 04:23:12;;;;;;;1999.90;999.90;;;14.60;99.90;;;;;;5051230;28;20179;-71
2023/07/26 04:25:38;;;;;;;1999.90;999.90;;;14.60;99.90;;;;;;5051480;28;20217;-72
2023/07/26 04:28:03;;;;;;;1999.90;999.90;;;14.60;99.90;;;;;;5051491;28;20172;-71
2023/07/26 04:30:29;;;;;;;1999.90;999.90;;;14.70;99.90;;;;;;5051467;28;20201;-72
2023/07/26 04:32:54;;;;;;;1999.90;999.90;;;14.70;99.90;;;;;;5051186;28;20247;-71
2023/07/26 04:35:20;;;;;;;1999.90;999.90;;;14.60;99.90;;;;;;5051354;28;20193;-71
2023/07/26 04:37:45;;;;;;;1999.90;999.90;;;14.60;99.90;;;;;;5051350;28;20568;-72
2023/07/26 04:40:11;;;;;;;1999.90;999.90;;;14.50;99.90;;;;;;5051398;28;20181;-72
2023/07/26 04:42:37;;;;;;;1999.90;999.90;;;14.40;99.90;;;;;;5051083;28;20209;-72
2023/07/26 04:45:03;;;;;;;1999.90;999.90;;;14.50;99.90;;;;;;5051294;28;20458;-72
2023/07/26 04:47:29;;;;;;;1999.90;999.90;;;14.60;99.90;;;;;;5051343;28;20170;-72
2023/07/26 04:49:54;;;;;;;1999.90;999.90;;;14.60;99.90;;;;;;5051255;28;21018;-72
2023/07/26 04:52:20;;;;;;;1999.90;999.90;;;14.70;99.90;;;;;;5050998;28;20168;-71
2023/07/26 04:54:45;;;;;;;1999.90;999.90;;;14.70;99.90;;;;;;5051244;28;20191;-71
2023/07/26 04:57:11;;;;;;;1999.90;999.90;;;14.70;99.90;;;;;;5051222;28;20166;-72
2023/07/26 04:59:36;;;;;;;1999.90;999.90;;;14.70;99.90;;;;;;5051229;28;20547;-72
2023/07/26 05:02:02;;;;;;;1999.90;999.90;;;14.70;99.90;;;;;;5050861;28;20177;-72
2023/07/26 05:04:28;;;;;;;1999.90;999.90;;;14.70;99.90;;;;;;5051056;28;20175;-71
2023/07/26 05:06:53;;;;;;;1999.90;999.90;;;14.70;99.90;;;;;;5053299;28;20197;-72
2023/07/26 05:09:19;;;;;;;1999.90;999.90;;;14.60;99.90;;;;;;5054663;28;20175;-72
2023/07/26 05:11:44;;;;;;;1999.90;999.90;;;14.70;99.90;;;;;;5054566;28;20601;-72
2023/07/26 05:14:10;;;;;;;1999.90;999.90;;;14.80;99.90;;;;;;5054681;28;20269;-72
2023/07/26 05:16:36;;;;;;;1999.90;999.90;;;14.70;99.90;;;;;;5054689;28;20183;-72
2023/07/26 05:19:01;;;;;;;1999.90;999.90;;;14.70;99.90;;;;;;5054543;28;20249;-72
2023/07/26 05:21:27;;;;;;;1999.90;999.90;;;14.80;99.90;;;;;;5054429;28;20565;-72
2023/07/26 05:23:52;;;;;;;1999.90;999.90;;;14.80;99.90;;;;;;5054663;28;20224;-72
2023/07/26 05:26:18;;;;;;;1999.90;999.90;;;14.80;99.90;;;;;;5054290;28;20207;-71
2023/07/26 05:28:44;;;;;;;1999.90;999.90;;;14.90;99.90;;;;;;5054395;28;20325;-72
2023/07/26 05:31:09;;;;;;;1999.90;999.90;;;15.00;99.90;;;;;;5053937;28;20221;-72
2023/07/26 05:33:35;;;;;;;1999.90;999.90;;;15.00;99.90;;;;;;5054280;28;20178;-72
2023/07/26 05:36:00;;;;;;;1999.90;999.90;;;15.00;99.90;;;;;;5054188;28;20190;-72
2023/07/26 05:38:26;;;;;;;1999.90;999.90;;;15.00;99.90;;;;;;5054232;28;20779;-72
2023/07/26 05:40:52;;;;;;;1999.90;999.90;;;15.10;99.90;;;;;;5054035;28;20183;-72
2023/07/26 05:43:18;;;;;;;1999.90;999.90;;;15.10;99.90;;;;;;5053999;28;20281;-72
2023/07/26 05:45:44;;;;;;;1999.90;999.90;;;15.20;99.90;;;;;;5053924;28;20466;-72
2023/07/26 05:48:10;;;;;;;1999.90;999.90;;;15.10;99.90;;;;;;5053996;28;20414;-72
2023/07/26 05:50:36;;;;;;;1999.90;999.90;;;15.10;99.90;;;;;;5053834;28;20988;-72
2023/07/26 05:53:01;;;;;;;1999.90;999.90;;;15.20;99.90;;;;;;5053681;28;20186;-72
2023/07/26 05:55:27;;;;;;;1999.90;999.90;;;15.20;99.90;;;;;;5053826;28;20266;-73
2023/07/26 05:57:52;;;;;;;1999.90;999.90;;;15.20;99.90;;;;;;5053907;28;20593;-71
2023/07/26 06:00:19;;;;;;;1999.90;999.90;;;15.20;99.90;;;;;;5053746;28;20178;-71
2023/07/26 06:02:44;;;;;;;1999.90;999.90;;;15.30;99.90;;;;;;5053448;28;20187;-71
2023/07/26 06:05:10;;;;;;;1999.90;999.90;;;15.40;99.90;;;;;;5053593;28;20436;-71
2023/07/26 06:07:36;;;;;;;1999.90;999.90;;;15.50;99.90;;;;;;5053873;28;20564;-71
2023/07/26 06:10:03;;;;;;;1999.90;999.90;;;15.60;99.90;;;;;;5053580;28;20203;-71
2023/07/26 06:12:29;;;;;;;1999.90;999.90;;;15.70;99.90;;;;;;5053249;28;20507;-71
2023/07/26 06:14:55;;;;;;;1999.90;999.90;;;15.70;99.90;;;;;;5053488;28;20468;-71
2023/07/26 06:17:20;;;;;;;1999.90;999.90;;;15.80;99.90;;;;;;5053155;28;20233;-71
2023/07/26 06:19:47;;;;;;;1999.90;999.90;;;15.70;99.90;;;;;;5053073;28;20636;-71
2023/07/26 06:22:12;;;;;;;1999.90;999.90;;;15.70;99.90;;;;;;5053112;28;20554;-71
2023/07/26 06:24:38;;;;;;;1999.90;999.90;;;15.60;99.90;;;;;;5053152;28;20423;-71
2023/07/26 06:27:04;;;;;;;1999.90;999.90;;;15.60;99.90;;;;;;5053410;28;20609;-70
2023/07/26 06:29:30;;;;;;;1999.90;999.90;;;15.60;99.90;;;;;;5053145;28;20245;-71
2023/07/26 06:31:56;;;;;;;1999.90;999.90;;;15.70;99.90;;;;;;5052979;28;21006;-71
2023/07/26 06:34:22;;;;;;;1999.90;999.90;;;15.60;99.90;;;;;;5052975;28;20402;-73
2023/07/26 06:36:48;;;;;;;1999.90;999.90;;;15.80;99.90;;;;;;5053007;28;20171;-71
2023/07/26 06:39:13;;;;;;;1999.90;999.90;;;15.90;99.90;;;;;;5052977;28;20224;-71
2023/07/26 06:41:39;;;;;;;1999.90;999.90;;;16.00;99.90;;;;;;5052715;28;20485;-71
2023/07/26 06:44:05;;;;;;;1999.90;999.90;;;16.10;99.90;;;;;;5052941;28;20171;-71
2023/07/26 06:46:33;;;;;;;1999.90;999.90;;;16.10;99.90;;;;;;5052796;28;20200;-71
2023/07/26 06:48:58;;;;;;;1999.90;999.90;;;16.20;99.90;;;;;;5053008;28;20410;-72
2023/07/26 06:51:24;;;;;;;1999.90;999.90;;;16.20;99.90;;;;;;5052456;28;20465;-71
2023/07/26 06:53:50;;;;;;;1999.90;999.90;;;16.20;99.90;;;;;;5052787;28;20171;-71
2023/07/26 06:56:15;;;;;;;1999.90;999.90;;;16.30;99.90;;;;;;5046285;28;20199;-72
2023/07/26 06:58:41;;;;;;;1999.90;999.90;;;16.40;99.90;;;;;;5048902;28;20275;-72
2023/07/26 07:01:16;;;;;;;1999.90;999.90;;;16.40;99.90;;;;;;5049094;28;20185;-72
2023/07/26 07:03:41;;;;;;;1999.90;999.90;;;16.30;99.90;;;;;;5052425;28;20672;-73
2023/07/26 07:06:07;;;;;;;1999.90;999.90;;;16.20;99.90;;;;;;5052399;28;20433;-72
2023/07/26 07:08:33;;;;;;;1999.90;999.90;;;16.20;99.90;;;;;;5052505;28;20181;-73
2023/07/26 07:10:58;;;;;;;1999.90;999.90;;;16.20;99.90;;;;;;5052098;28;20451;-72
2023/07/26 07:13:24;;;;;;;1999.90;999.90;;;16.30;99.90;;;;;;5052403;28;20204;-72
2023/07/26 07:15:50;;;;;;;1999.90;999.90;;;16.30;99.90;;;;;;5052390;28;20196;-72
2023/07/26 07:18:16;;;;;;;1999.90;999.90;;;16.40;99.90;;;;;;5052306;28;20180;-72
2023/07/26 07:20:42;;;;;;;1999.90;999.90;;;16.60;99.90;;;;;;5052341;28;20234;-72
2023/07/26 07:23:09;;;;;;;1999.90;999.90;;;16.70;99.90;;;;;;5052003;28;20413;-72
2023/07/26 07:25:37;;;;;;;1999.90;999.90;;;16.80;99.90;;;;;;5051302;28;20217;-72
2023/07/26 07:28:04;;;;;;;1999.90;999.90;;;16.80;99.90;;;;;;5052158;28;20824;-72
2023/07/26 07:30:30;;;;;;;1999.90;999.90;;;17.00;99.90;;;;;;5051404;28;20460;-73
2023/07/26 07:32:56;;;;;;;1999.90;999.90;;;17.10;99.90;;;;;;5051951;28;20470;-72
2023/07/26 07:35:21;;;;;;;1999.90;999.90;;;17.20;99.90;;;;;;5051982;28;20806;-72
2023/07/26 07:37:47;;;;;;;1999.90;999.90;;;17.10;99.90;;;;;;5052134;28;20170;-72
2023/07/26 07:40:13;;;;;;;1999.90;999.90;;;17.10;99.90;;;;;;5049822;28;20183;-72
2023/07/26 07:42:38;;;;;;;1999.90;999.90;;;17.20;99.90;;;;;;5050784;28;20174;-72
2023/07/26 07:45:04;;;;;;;1999.90;999.90;;;17.40;99.90;;;;;;5051895;28;20187;-71
2023/07/26 07:47:30;;;;;;;1999.90;999.90;;;17.60;99.90;;;;;;5049437;28;20181;-71
2023/07/26 07:49:56;;;;;;;1999.90;999.90;;;17.70;99.90;;;;;;5047259;28;20463;-72
2023/07/26 07:52:21;;;;;;;1999.90;999.90;;;17.80;99.90;;;;;;5049546;28;20260;-72
2023/07/26 07:54:47;;;;;;;1999.90;999.90;;;17.90;99.90;;;;;;5049207;28;20200;-71
2023/07/26 07:57:13;;;;;;;1999.90;999.90;;;17.90;99.90;;;;;;5050066;28;20176;-70
2023/07/26 07:59:39;;;;;;;1999.90;999.90;;;18.10;99.90;;;;;;5050413;28;20180;-70
2023/07/26 08:02:05;;;;;;;1999.90;999.90;;;18.30;99.90;;;;;;5049252;28;20435;-69
2023/07/26 08:04:31;;;;;;;1999.90;999.90;;;18.60;99.90;;;;;;5050190;28;20186;-70
2023/07/26 08:06:57;;;;;;;1999.90;999.90;;;;;;;;;;5049496;28;20418;-70
2023/07/26 08:09:22;;;;;;;1999.90;999.90;;;18.60;99.90;;;;;;5050857;28;20226;-70
2023/07/26 08:11:48;;;;;;;1999.90;999.90;;;18.70;99.90;;;;;;5049382;28;20451;-71
2023/07/26 08:14:13;;;;;;;1999.90;999.90;;;18.90;99.90;;;;;;5050827;28;20260;-71
2023/07/26 08:16:39;;;;;;;1999.90;999.90;;;19.00;99.90;;;;;;5066141;22;20259;-71
2023/07/26 08:19:05;;;;;;;1999.90;999.90;;;19.10;99.90;;;;;;5050381;28;20230;-71
2023/07/26 08:21:30;;;;;;;1999.90;999.90;;;19.10;99.90;;;;;;5052417;28;20170;-70
2023/07/26 08:23:56;;;;;;;1999.90;999.90;;;19.10;99.90;;;;;;5051439;28;20270;-71
2023/07/26 08:26:21;;;;;;;1999.90;999.90;;;19.00;99.90;;;;;;5050450;28;20600;-72
2023/07/26 08:28:48;;;;;;;1999.90;999.90;;;18.90;99.90;;;;;;5051149;28;20197;-70
2023/07/26 08:31:14;;;;;;;1999.90;999.90;;;19.00;99.90;;;;;;5049679;28;20205;-71
2023/07/26 08:33:39;;;;;;;1999.90;999.90;;;19.00;99.90;;;;;;5043817;28;20425;-71
2023/07/26 08:36:05;;;;;;;1999.90;999.90;;;19.00;99.90;;;;;;5050670;28;20858;-71
2023/07/26 08:38:33;;;;;;;1999.90;999.90;;;19.00;99.90;;;;;;5050647;28;20176;-71
2023/07/26 08:40:59;;;;;;;1999.90;999.90;;;19.10;99.90;;;;;;5050153;28;20189;-72
2023/07/26 08:43:30;;;;;;;1999.90;999.90;;;19.10;99.90;;;;;;5054429;28;20414;-72
2023/07/26 08:45:56;;;;;;;1999.90;999.90;;;19.10;99.90;;;;;;5054453;28;20225;-73
2023/07/26 08:48:22;;;;;;;1999.90;999.90;;;19.20;99.90;;;;;;5054328;28;20471;-70
2023/07/26 08:50:49;;;;;;;1999.90;999.90;;;19.10;99.90;;;;;;5054119;28;20447;-70
2023/07/26 08:53:15;;;;;;;1999.90;999.90;;;19.00;99.90;;;;;;5053695;28;20398;-73
2023/07/26 08:55:41;;;;;;;1999.90;999.90;;;19.20;99.90;;;;;;5053538;28;20485;-70
2023/07/26 08:58:06;;;;;;;1999.90;999.90;;;18.80;99.90;;;;;;5051433;28;20423;-74
2023/07/26 09:00:32;;;;;;;1999.90;999.90;;;19.80;99.90;;;;;;5053708;28;20424;-73
2023/07/26 09:02:59;;;;;;;1999.90;999.90;;;19.90;99.90;;;;;;5053410;28;20184;-73
2023/07/26 09:05:25;;;;;;;1999.90;999.90;;;19.90;99.90;;;;;;5053678;28;20195;-73
2023/07/26 09:07:51;;;;;;;1999.90;999.90;;;19.90;99.90;;;;;;5054229;28;20431;-72
2023/07/26 09:10:31;;;;;;;1999.90;999.90;;;20.00;99.90;;;;;;5054095;28;20556;-73
2023/07/26 09:13:10;;;;;;;1999.90;999.90;;;19.90;99.90;;;;;;5052349;28;20973;-73
2023/07/26 09:15:38;;;;;;;1999.90;999.90;;;19.90;99.90;;;;;;5053875;28;20432;-73
2023/07/26 09:18:07;;;;;;;1999.90;999.90;;;19.90;99.90;;;;;;5053430;28;20438;-73
2023/07/26 09:20:33;;;;;;;1999.90;999.90;;;20.10;99.90;;;;;;5054400;28;20880;-74
2023/07/26 09:23:03;;;;;;;1999.90;999.90;;;20.20;99.90;;;;;;5053405;28;20450;-73
2023/07/26 09:25:40;;;;;;;1999.90;999.90;;;20.20;99.90;;;;;;5053400;28;20519;-74
2023/07/26 09:28:11;;;;;;;1999.90;999.90;;;20.40;99.90;;;;;;5054025;28;20470;-73
2023/07/26 09:30:38;;;;;;;1999.90;999.90;;;20.60;99.90;;;;;;5053754;28;20896;-74
2023/07/26 09:33:08;;;;;;;1999.90;999.90;;;20.60;99.90;;;;;;5052511;28;20507;-73
2023/07/26 09:35:48;;;;;;;1999.90;999.90;;;20.50;99.90;;;;;;5053621;28;20422;-72
2023/07/26 09:38:16;;;;;;;1999.90;999.90;;;20.40;99.90;;;;;;5053664;28;20474;-73
2023/07/26 09:40:42;;;;;;;1999.90;999.90;;;20.30;99.90;;;;;;5053250;28;20842;-72
2023/07/26 09:43:08;;;;;;;1999.90;999.90;;;20.30;99.90;;;;;;5053115;28;20444;-72
2023/07/26 09:45:34;;;;;;;1999.90;999.90;;;20.30;99.90;;;;;;5053639;28;20217;-73
2023/07/26 09:48:08;;;;;;;1999.90;999.90;;;20.50;99.90;;;;;;5053406;28;20469;-70
2023/07/26 09:50:35;;;;;;;1999.90;999.90;;;20.40;99.90;;;;;;5053561;28;20462;-72
2023/07/26 09:53:05;;;;;;;1999.90;999.90;;;20.40;99.90;;;;;;5052114;28;20783;-73
2023/07/26 09:55:31;;;;;;;1999.90;999.90;;;20.50;99.90;;;;;;5052890;28;20438;-72
2023/07/26 09:57:58;;;;;;;1999.90;999.90;;;20.50;99.90;;;;;;5053579;28;20512;-71
2023/07/26 10:00:26;;;;;;;1999.90;999.90;;;20.50;99.90;;;;;;5053761;28;20419;-72
2023/07/26 10:02:58;;;;;;;1999.90;999.90;;;20.40;99.90;;;;;;5051320;28;20454;-69
2023/07/26 10:05:26;;;;;;;1999.90;999.90;;;20.60;99.90;;;;;;5053243;28;20958;-70
2023/07/26 10:07:52;;;;;;;1999.90;999.90;;;20.70;99.90;;;;;;5053457;28;20502;-72
2023/07/26 10:10:19;;;;;;;1999.90;999.90;;;20.90;99.90;;;;;;5053129;28;20446;-72
2023/07/26 10:12:46;;;;;;;1999.90;999.90;;;20.90;99.90;;;;;;5053100;28;20424;-71
2023/07/26 10:15:16;;;;;;;1999.90;999.90;;;20.80;99.90;;;;;;5052497;28;20821;-71
2023/07/26 10:17:47;;;;;;;1999.90;999.90;;;20.40;99.90;;;;;;5052939;28;20510;-71
2023/07/26 10:20:14;;;;;;;1999.90;999.90;;;20.30;99.90;;;;;;5053578;28;20464;-72
2023/07/26 10:22:42;;;;;;;1999.90;999.90;;;20.20;99.90;;;;;;5052420;28;20421;-72
2023/07/26 10:25:08;;;;;;;1999.90;999.90;;;20.30;99.90;;;;;;5052458;28;20429;-71
2023/07/26 10:27:35;;;;;;;1999.90;999.90;;;20.10;99.90;;;;;;5053277;28;20452;-71
2023/07/26 10:30:01;;;;;;;1999.90;999.90;;;19.90;99.90;;;;;;5053154;28;20854;-71
2023/07/26 10:32:27;;;;;;;1999.90;999.90;;;19.70;99.90;;;;;;5051627;28;20504;-70
2023/07/26 10:34:56;;;;;;;1999.90;999.90;;;19.50;99.90;;;;;;5052535;28;20531;-70
2023/07/26 10:37:23;;;;;;;1999.90;999.90;;;19.30;99.90;;;;;;5052536;28;20172;-70
2023/07/26 10:39:49;;;;;;;1999.90;999.90;;;19.20;99.90;;;;;;5051788;28;20460;-69
2023/07/26 10:42:24;;;;;;;1999.90;999.90;;;19.30;99.90;;;;;;5051836;28;20413;-70
2023/07/26 10:44:49;;;;;;;1999.90;999.90;;;19.30;99.90;;;;;;5052311;28;20459;-70
2023/07/26 10:47:15;;;;;;;1999.90;999.90;;;19.40;99.90;;;;;;5051879;28;20858;-70
2023/07/26 10:49:46;;;;;;;1999.90;999.90;;;19.60;99.90;;;;;;5052285;28;20199;-70
2023/07/26 10:52:12;;;;;;;1999.90;999.90;;;19.70;99.90;;;;;;5051768;28;20241;-70
2023/07/26 10:54:49;;;;;;;1999.90;999.90;;;20.00;99.90;;;;;;5051671;28;20574;-69
2023/07/26 10:57:27;;;;;;;1999.90;999.90;;;20.40;99.90;;;;;;5052228;28;20156;-70
2023/07/26 11:00:09;;;;;;;1999.90;999.90;;;20.60;99.90;;;;;;5052118;28;20421;-70
2023/07/26 11:02:35;;;;;;;1999.90;999.90;;;20.80;99.90;;;;;;5050744;28;20424;-70
2023/07/26 11:05:02;;;;;;;1999.90;999.90;;;21.00;99.90;;;;;;5052089;28;20431;-70
2023/07/26 11:08:05;;;;;;;1999.90;999.90;;;21.10;99.90;;;;;;5051984;28;20417;-69
2023/07/26 11:10:31;;;;;;;1999.90;999.90;;;20.70;99.90;;;;;;5051566;28;20445;-70
2023/07/26 11:13:16;;;;;;;1999.90;999.90;;;20.20;99.90;;;;;;5051111;28;20428;-69
2023/07/26 11:15:47;;;;;;;1999.90;999.90;;;19.90;99.90;;;;;;5051568;28;20300;-69
2023/07/26 11:18:14;;;;;;;1999.90;999.90;;;19.80;99.90;;;;;;5051194;28;20477;-70
2023/07/26 11:20:47;;;;;;;1999.90;999.90;;;19.60;99.90;;;;;;5051971;28;20430;-70
2023/07/26 11:23:19;;;;;;;1999.90;999.90;;;19.40;99.90;;;;;;5051148;28;20740;-71
2023/07/26 11:25:46;;;;;;;1999.90;999.90;;;19.00;99.90;;;;;;5051119;28;20431;-70
2023/07/26 11:28:12;;;;;;;1999.90;999.90;;;18.70;99.90;;;;;;5051911;28;20831;-71
2023/07/26 11:30:39;;;;;;;1999.90;999.90;;;18.60;99.90;;;;;;5051502;28;20451;-71
2023/07/26 11:33:05;;;;;;;1999.90;999.90;;;18.60;99.90;;;;;;5050541;28;20436;-70
2023/07/26 11:35:42;;;;;;;1999.90;999.90;;;18.70;99.90;;;;;;5051467;28;20436;-71
2023/07/26 11:38:12;;;;;;;1999.90;999.90;;;18.80;99.90;;;;;;5051446;28;20159;-71
2023/07/26 11:40:42;;;;;;;1999.90;999.90;;;19.30;99.90;;;;;;5051238;28;20949;-71
2023/07/26 11:43:09;;;;;;;1999.90;999.90;;;19.70;99.90;;;;;;5050722;28;20424;-71
2023/07/26 11:45:41;;;;;;;1999.90;999.90;;;20.30;99.90;;;;;;5051576;28;20437;-71
2023/07/26 11:48:10;;;;;;;1999.90;999.90;;;20.90;99.90;;;;;;5050920;28;20397;-71
2023/07/26 11:50:37;;;;;;;1999.90;999.90;;;21.20;99.90;;;;;;5051123;28;20452;-71
2023/07/26 11:53:04;;;;;;;1999.90;999.90;;;21.50;99.90;;;;;;5050642;28;20454;-72
2023/07/26 11:55:31;;;;;;;1999.90;999.90;;;21.70;99.90;;;;;;5050966;28;20439;-71
2023/07/26 11:58:03;;;;;;;1999.90;999.90;;;21.80;99.90;;;;;;5051221;28;20407;-71